createdAt,value
2022-10-02T00:02:24.144Z,14.38
2022-10-02T00:05:13.760Z,14.20
2022-10-02T00:08:24.052Z,13.18
2022-10-02T00:11:01.748Z,13.82
2022-10-02T00:13:41.490Z,13.13
2022-10-02T00:16:28.122Z,13.15
2022-10-02T00:18:57.183Z,13.27
2022-10-02T00:21:53.904Z,12.88
2022-10-02T00:24:27.566Z,13.43
2022-10-02T00:27:04.014Z,12.77
2022-10-02T00:29:45.824Z,13.10
2022-10-02T00:32:29.449Z,12.13
2022-10-02T00:35:20.965Z,11.70
2022-10-02T00:38:06.607Z,13.00
2022-10-02T00:40:53.650Z,11.77
2022-10-02T00:44:08.751Z,10.60
2022-10-02T00:46:43.186Z,10.45
2022-10-02T00:49:40.985Z,11.57
2022-10-02T00:52:28.093Z,11.07
2022-10-02T00:55:34.124Z,11.02
2022-10-02T00:58:16.614Z,9.73
2022-10-02T01:01:02.886Z,10.02
2022-10-02T01:03:56.638Z,9.45
2022-10-02T01:06:27.922Z,9.95
2022-10-02T01:08:56.290Z,10.13
2022-10-02T01:11:27.170Z,10.32
2022-10-02T01:13:56.119Z,10.43
2022-10-02T01:16:24.827Z,10.15
2022-10-02T01:18:53.303Z,10.18
2022-10-02T01:21:31.010Z,9.68
2022-10-02T01:24:17.455Z,9.43
2022-10-02T01:26:45.967Z,9.88
2022-10-02T01:29:14.522Z,10.07
2022-10-02T01:31:43.146Z,9.90
2022-10-02T01:34:12.416Z,10.23
2022-10-02T01:36:40.994Z,9.65
2022-10-02T01:39:09.644Z,9.77
2022-10-02T01:41:43.079Z,10.63
2022-10-02T01:44:13.189Z,9.93
2022-10-02T01:47:03.586Z,10.15
2022-10-02T01:49:44.400Z,8.95
2022-10-02T01:52:22.586Z,9.30
2022-10-02T01:55:09.791Z,9.77
2022-10-02T01:57:44.490Z,9.93
2022-10-02T02:00:26.462Z,9.05
2022-10-02T02:03:15.653Z,10.07
2022-10-02T02:05:47.865Z,8.88
2022-10-02T02:08:36.953Z,9.77
2022-10-02T02:11:15.026Z,9.57
2022-10-02T02:14:01.586Z,8.90
2022-10-02T02:16:41.398Z,8.95
2022-10-02T02:19:21.898Z,8.73
2022-10-02T02:21:58.747Z,9.27
2022-10-02T02:24:42.028Z,8.60
2022-10-02T02:27:17.799Z,9.40
2022-10-02T02:29:51.435Z,8.90
2022-10-02T02:32:27.203Z,7.80
2022-10-02T02:35:04.308Z,7.35
2022-10-02T02:37:35.865Z,8.75
2022-10-02T02:40:13.265Z,8.32
2022-10-02T02:43:05.112Z,7.78
2022-10-02T02:45:43.619Z,7.65
2022-10-02T02:48:21.435Z,7.72
2022-10-02T02:50:59.479Z,8.30
2022-10-02T02:53:38.313Z,7.88
2022-10-02T02:56:10.189Z,8.05
2022-10-02T02:58:47.344Z,7.93
2022-10-02T03:01:15.966Z,8.38
2022-10-02T03:03:44.747Z,8.50
2022-10-02T03:06:16.096Z,7.95
2022-10-02T03:08:47.727Z,7.55
2022-10-02T03:11:42.273Z,7.55
2022-10-02T03:14:37.218Z,7.70
2022-10-02T03:17:20.000Z,7.10
2022-10-02T03:20:12.311Z,7.03
2022-10-02T03:23:00.280Z,7.10
2022-10-02T03:25:51.348Z,6.53
2022-10-02T03:28:43.543Z,6.10
2022-10-02T03:31:13.870Z,6.25
2022-10-02T03:33:43.783Z,6.55
2022-10-02T03:36:17.998Z,6.53
2022-10-02T03:38:56.867Z,6.00
2022-10-02T03:41:34.818Z,6.22
2022-10-02T03:44:03.066Z,6.35
2022-10-02T03:46:31.397Z,6.03
2022-10-02T03:49:00.102Z,5.88
2022-10-02T03:51:28.530Z,5.85
2022-10-02T03:53:57.990Z,5.63
2022-10-02T03:56:33.590Z,6.53
2022-10-02T03:59:05.420Z,5.30
2022-10-02T04:02:00.582Z,5.40
2022-10-02T04:04:37.975Z,5.40
2022-10-02T04:07:15.175Z,5.00
2022-10-02T04:10:03.960Z,5.00
2022-10-02T04:12:40.324Z,4.63
2022-10-02T04:16:02.797Z,4.13
2022-10-02T04:18:41.723Z,4.10
2022-10-02T04:21:37.455Z,4.50
2022-10-02T04:24:28.159Z,4.07
2022-10-02T04:27:10.468Z,4.00
2022-10-02T04:29:46.275Z,4.30
2022-10-02T04:32:17.123Z,4.38
2022-10-02T04:34:46.411Z,4.05
2022-10-02T04:37:42.479Z,4.20
2022-10-02T04:40:36.165Z,3.97
2022-10-02T04:43:15.659Z,3.80
2022-10-02T04:46:23.380Z,3.65
2022-10-02T04:49:10.425Z,3.38
2022-10-02T04:52:15.251Z,3.35
2022-10-02T04:55:08.671Z,3.08
2022-10-02T04:57:59.231Z,3.30
2022-10-02T05:00:36.669Z,3.70
2022-10-02T05:03:36.450Z,3.40
2022-10-02T05:06:22.913Z,4.13
2022-10-02T05:09:03.884Z,3.70
2022-10-02T05:11:53.444Z,3.33
2022-10-02T05:15:03.516Z,3.47
2022-10-02T05:18:13.541Z,3.67
2022-10-02T05:20:59.358Z,3.40
2022-10-02T05:23:42.867Z,3.75
2022-10-02T05:26:48.624Z,3.47
2022-10-02T05:29:43.446Z,3.80
2022-10-02T05:32:27.316Z,3.85
2022-10-02T05:35:33.368Z,3.60
2022-10-02T05:38:17.195Z,3.33
2022-10-02T05:41:04.766Z,3.80
2022-10-02T05:43:45.966Z,3.88
2022-10-02T05:46:26.058Z,4.07
2022-10-02T05:49:00.668Z,3.78
2022-10-02T05:51:44.852Z,3.45
2022-10-02T05:54:25.434Z,3.95
2022-10-02T05:57:16.641Z,3.72
2022-10-02T05:59:57.402Z,4.10
2022-10-02T06:02:44.130Z,4.00
2022-10-02T06:05:21.247Z,3.88
2022-10-02T06:07:54.733Z,3.45
2022-10-02T06:10:30.343Z,3.40
2022-10-02T06:13:08.739Z,3.30
2022-10-02T06:15:48.462Z,3.58
2022-10-02T06:18:31.699Z,3.53
2022-10-02T06:21:15.466Z,3.85
2022-10-02T06:23:48.513Z,3.70
2022-10-02T06:26:30.981Z,3.63
2022-10-02T06:29:19.266Z,3.60
2022-10-02T06:31:59.318Z,4.22
2022-10-02T06:34:28.775Z,3.60
2022-10-02T06:37:14.245Z,4.95
2022-10-02T06:39:59.615Z,3.33
2022-10-02T06:42:44.486Z,3.47
2022-10-02T06:45:35.122Z,3.17
2022-10-02T06:48:28.947Z,3.85
2022-10-02T06:51:11.518Z,3.58
2022-10-02T06:53:54.643Z,3.60
2022-10-02T06:56:49.550Z,3.92
2022-10-02T06:59:36.123Z,3.47
2022-10-02T07:02:19.697Z,3.15
2022-10-02T07:05:24.736Z,3.10
2022-10-02T07:08:27.908Z,3.22
2022-10-02T07:11:03.537Z,3.30
2022-10-02T07:13:44.193Z,3.45
2022-10-02T07:16:28.749Z,3.58
2022-10-02T07:19:03.201Z,1.98
2022-10-02T07:22:39.597Z,3.58
2022-10-02T07:25:20.172Z,3.15
2022-10-02T07:28:19.407Z,3.15
2022-10-02T07:31:12.890Z,3.40
2022-10-02T07:34:14.897Z,3.35
2022-10-02T07:36:54.722Z,3.17
2022-10-02T07:39:43.521Z,2.97
2022-10-02T07:42:47.577Z,2.88
2022-10-02T07:45:26.416Z,3.30
2022-10-02T07:48:00.726Z,3.13
2022-10-02T07:50:59.102Z,3.05
2022-10-02T07:53:46.424Z,2.78
2022-10-02T07:56:20.802Z,2.90
2022-10-02T07:58:58.450Z,3.08
2022-10-02T08:01:32.548Z,3.30
2022-10-02T08:04:05.279Z,3.47
2022-10-02T08:06:35.183Z,3.90
2022-10-02T08:09:31.985Z,3.28
2022-10-02T08:12:09.507Z,2.95
2022-10-02T08:14:42.876Z,3.25
2022-10-02T08:17:36.288Z,3.10
2022-10-02T08:20:49.758Z,3.33
2022-10-02T08:23:31.540Z,3.10
2022-10-02T08:26:16.948Z,3.30
2022-10-02T08:28:54.628Z,3.53
2022-10-02T08:31:24.034Z,3.80
2022-10-02T08:33:55.737Z,3.25
2022-10-02T08:36:39.571Z,3.00
2022-10-02T08:39:21.822Z,6.18
2022-10-02T08:42:36.167Z,2.92
2022-10-02T08:45:45.258Z,2.70
2022-10-02T08:48:35.449Z,3.47
2022-10-02T08:51:40.451Z,2.60
2022-10-02T08:54:24.148Z,2.95
2022-10-02T08:57:17.718Z,3.25
2022-10-02T09:00:15.039Z,2.83
2022-10-02T09:03:05.083Z,2.45
2022-10-02T09:06:01.476Z,1.92
2022-10-02T09:12:40.416Z,6.80
2022-10-02T09:15:18.578Z,3.22
2022-10-02T09:17:52.127Z,3.15
2022-10-02T09:21:16.055Z,2.90
2022-10-02T09:24:10.604Z,3.00
2022-10-02T09:27:20.928Z,3.15
2022-10-02T09:30:17.105Z,2.80
2022-10-02T09:32:54.607Z,3.35
2022-10-02T09:35:55.675Z,2.78
2022-10-02T09:38:54.480Z,4.13
2022-10-02T09:41:59.540Z,2.50
2022-10-02T09:44:52.209Z,2.42
2022-10-02T09:50:34.250Z,2.08
2022-10-02T09:53:32.706Z,2.25
2022-10-02T09:56:38.374Z,2.08
2022-10-02T09:59:22.025Z,2.40
2022-10-02T10:03:15.740Z,2.75
2022-10-02T10:05:39.430Z,2.20
2022-10-02T10:08:25.956Z,2.50
2022-10-02T10:11:22.252Z,2.90
2022-10-02T10:14:07.840Z,2.35
2022-10-02T10:17:20.728Z,3.13
2022-10-02T10:42:12.525Z,2.30
2022-10-02T10:45:37.173Z,3.25
2022-10-02T10:48:34.628Z,3.17
2022-10-02T10:52:00.125Z,2.60
2022-10-02T10:55:03.241Z,3.50
2022-10-02T10:58:06.442Z,3.30
2022-10-02T11:05:47.362Z,2.58
2022-10-02T11:12:54.269Z,2.30
2022-10-02T11:16:58.387Z,2.40
2022-10-02T11:20:21.618Z,2.45
2022-10-02T11:28:25.477Z,2.63
2022-10-02T11:32:03.390Z,2.50
2022-10-02T11:35:07.666Z,2.50
2022-10-02T11:38:29.340Z,2.22
2022-10-02T11:42:23.362Z,2.67
2022-10-02T11:45:41.899Z,3.13
2022-10-02T11:52:25.208Z,2.00
2022-10-02T11:55:25.561Z,2.22
2022-10-02T12:07:56.959Z,2.05
2022-10-02T12:24:28.126Z,1.90
2022-10-02T12:27:39.208Z,1.70
2022-10-02T12:30:23.816Z,1.90
2022-10-02T12:33:41.904Z,3.25
2022-10-02T12:36:34.762Z,2.17
2022-10-02T12:39:26.045Z,2.50
2022-10-02T12:42:15.807Z,1.80
2022-10-02T12:45:11.922Z,2.10
2022-10-02T12:47:57.837Z,1.80
2022-10-02T12:50:58.469Z,1.70
2022-10-02T12:54:09.947Z,1.98
2022-10-02T12:56:58.855Z,1.73
2022-10-02T13:00:30.631Z,1.80
2022-10-02T13:03:36.709Z,2.00
2022-10-02T13:07:05.752Z,1.50
2022-10-02T13:09:53.761Z,1.80
2022-10-02T13:12:54.304Z,1.60
2022-10-02T13:15:29.467Z,2.20
2022-10-02T13:18:25.619Z,1.50
2022-10-02T13:21:09.266Z,1.67
2022-10-02T13:24:14.826Z,2.00
2022-10-02T13:26:54.172Z,1.88
2022-10-02T13:29:52.630Z,3.80
2022-10-02T13:32:42.043Z,1.80
2022-10-02T13:35:29.952Z,1.98
2022-10-02T13:38:14.611Z,2.05
2022-10-02T13:40:48.200Z,2.35
2022-10-02T13:43:34.978Z,2.35
2022-10-02T13:46:42.825Z,1.83
2022-10-02T13:49:23.224Z,2.05
2022-10-02T13:52:02.494Z,2.00
2022-10-02T13:55:05.905Z,1.80
2022-10-02T13:57:59.875Z,1.73
2022-10-02T14:00:45.831Z,2.30
2022-10-02T14:03:28.093Z,1.60
2022-10-02T14:06:07.555Z,1.70
2022-10-02T14:09:00.684Z,1.70
2022-10-02T14:11:58.601Z,1.85
2022-10-02T14:15:05.757Z,1.40
2022-10-02T14:17:59.637Z,2.20
2022-10-02T14:20:40.130Z,2.38
2022-10-02T14:23:25.799Z,2.30
2022-10-02T14:26:33.140Z,1.65
2022-10-02T14:29:12.723Z,2.35
2022-10-02T14:32:03.074Z,3.10
2022-10-02T14:34:58.799Z,2.45
2022-10-02T14:37:54.188Z,2.40
2022-10-02T14:44:51.371Z,1.83
2022-10-02T14:52:18.697Z,1.65
2022-10-02T14:55:23.376Z,2.03
2022-10-02T14:58:18.056Z,2.78
2022-10-02T15:01:06.765Z,2.40
2022-10-02T15:04:08.273Z,2.75
2022-10-02T15:07:04.761Z,2.28
2022-10-02T15:09:45.448Z,2.50
2022-10-02T15:12:19.897Z,3.35
2022-10-02T15:15:15.653Z,2.88
2022-10-02T15:18:17.646Z,2.92
2022-10-02T15:21:50.779Z,2.38
2022-10-02T15:24:58.393Z,1.58
2022-10-02T15:27:44.914Z,2.30
2022-10-02T15:30:20.654Z,2.00
2022-10-02T15:33:28.481Z,2.53
2022-10-02T15:36:16.850Z,2.42
2022-10-02T15:38:51.680Z,3.40
2022-10-02T15:41:36.443Z,2.95
2022-10-02T15:44:19.071Z,2.60
2022-10-02T15:47:25.881Z,2.50
2022-10-02T15:50:34.617Z,2.30
2022-10-02T15:53:06.036Z,3.00
2022-10-02T15:55:42.690Z,2.72
2022-10-02T15:58:36.335Z,2.78
2022-10-02T16:01:44.857Z,2.30
2022-10-02T16:04:46.939Z,3.10
2022-10-02T16:08:02.672Z,2.13
2022-10-02T16:10:42.619Z,2.22
2022-10-02T16:13:46.323Z,2.17
2022-10-02T16:16:41.055Z,2.88
2022-10-02T16:19:50.345Z,2.75
2022-10-02T16:22:50.600Z,3.35
2022-10-02T16:25:50.318Z,3.20
2022-10-02T16:28:50.174Z,3.38
2022-10-02T16:31:43.269Z,3.55
2022-10-02T16:34:16.033Z,4.07
2022-10-02T16:37:07.320Z,6.97
2022-10-02T16:39:36.282Z,8.60
2022-10-02T16:42:22.619Z,8.27
2022-10-02T16:45:15.693Z,5.85
2022-10-02T16:48:25.504Z,9.30
2022-10-02T16:51:35.958Z,8.52
2022-10-02T16:54:29.518Z,4.95
2022-10-02T16:57:25.060Z,9.48
2022-10-02T17:00:31.327Z,6.13
2022-10-02T17:03:25.856Z,5.18
2022-10-02T17:06:06.609Z,7.70
2022-10-02T17:08:53.940Z,7.93
2022-10-02T17:11:36.959Z,7.68
2022-10-02T17:14:14.940Z,10.30
2022-10-02T17:16:52.427Z,5.72
2022-10-02T17:19:28.620Z,4.93
2022-10-02T17:22:11.564Z,6.68
2022-10-02T17:25:11.639Z,6.95
2022-10-02T17:27:51.780Z,7.80
2022-10-02T17:30:24.452Z,6.47
2022-10-02T17:33:14.964Z,6.90
2022-10-02T17:36:18.973Z,7.80
2022-10-02T17:39:32.853Z,7.53
2022-10-02T17:42:46.759Z,4.95
2022-10-02T17:45:30.313Z,4.90
2022-10-02T17:48:35.439Z,5.30
2022-10-02T17:51:47.120Z,5.35
2022-10-02T17:54:51.020Z,5.93
2022-10-02T17:57:31.823Z,9.27
2022-10-02T18:00:14.027Z,5.57
2022-10-02T18:03:01.523Z,4.97
2022-10-02T18:05:51.425Z,4.65
2022-10-02T18:08:40.653Z,4.95
2022-10-02T18:11:37.293Z,5.95
2022-10-02T18:14:16.842Z,7.05
2022-10-02T18:17:19.072Z,6.75
2022-10-02T18:24:35.519Z,10.48
2022-10-02T18:27:37.732Z,7.00
2022-10-02T18:30:23.708Z,6.70
2022-10-02T18:33:25.516Z,6.22
2022-10-02T18:36:20.684Z,6.57
2022-10-02T18:39:01.081Z,6.72
2022-10-02T18:41:33.283Z,5.22
2022-10-02T18:44:27.510Z,5.53
2022-10-02T18:47:02.814Z,4.85
2022-10-02T18:50:22.181Z,8.63
2022-10-02T18:52:50.700Z,9.90
2022-10-02T18:56:27.533Z,5.20
2022-10-02T18:59:15.749Z,4.15
2022-10-02T19:02:14.576Z,4.20
2022-10-02T19:05:30.870Z,5.38
2022-10-02T19:08:05.294Z,9.68
2022-10-02T19:10:34.980Z,17.52
2022-10-02T19:13:30.413Z,14.30
2022-10-02T19:16:17.649Z,6.78
2022-10-02T19:19:51.823Z,7.68
2022-10-02T19:23:01.972Z,7.63
2022-10-02T19:25:54.753Z,8.23
2022-10-02T19:28:33.145Z,19.10
2022-10-02T19:31:23.776Z,12.75
2022-10-02T19:34:49.786Z,8.98
2022-10-02T19:37:19.064Z,9.15
2022-10-02T19:40:01.808Z,16.85
2022-10-02T19:42:57.643Z,11.02
2022-10-02T19:45:34.975Z,8.10
2022-10-02T19:48:06.994Z,11.52
2022-10-02T19:50:43.584Z,6.60
2022-10-02T19:53:36.420Z,10.77
2022-10-02T19:56:17.103Z,20.98
2022-10-02T19:58:56.610Z,9.68
2022-10-02T20:01:42.286Z,7.72
2022-10-02T20:04:23.058Z,7.63
2022-10-02T20:06:59.944Z,7.75
2022-10-02T20:10:01.051Z,7.97
2022-10-02T20:12:41.178Z,20.27
2022-10-02T20:16:22.786Z,7.28
2022-10-02T20:18:52.653Z,18.35
2022-10-02T20:21:42.115Z,5.20
2022-10-02T20:24:42.960Z,8.98
2022-10-02T20:27:42.780Z,24.85
2022-10-02T20:30:15.003Z,28.23
2022-10-02T20:33:02.269Z,21.67
2022-10-02T20:35:40.527Z,18.88
2022-10-02T20:38:25.607Z,12.25
2022-10-02T20:40:56.604Z,4.97
2022-10-02T20:43:49.218Z,4.53
2022-10-02T20:47:04.937Z,4.38
2022-10-02T20:50:04.674Z,4.72
2022-10-02T20:53:18.281Z,5.13
2022-10-02T20:55:46.572Z,7.10
2022-10-02T20:58:21.148Z,6.65
2022-10-02T21:01:38.263Z,5.78
2022-10-02T21:04:39.130Z,5.97
2022-10-02T21:07:27.524Z,5.43
2022-10-02T21:10:08.609Z,5.45
2022-10-02T21:13:14.640Z,6.18
2022-10-02T21:16:10.780Z,5.05
2022-10-02T21:18:48.224Z,5.97
2022-10-02T21:21:39.802Z,5.32
2022-10-02T21:24:17.701Z,4.65
2022-10-02T21:27:05.190Z,5.82
2022-10-02T21:29:53.313Z,4.93
2022-10-02T21:32:39.750Z,4.55
2022-10-02T21:35:34.840Z,4.68
2022-10-02T21:38:28.348Z,4.60
2022-10-02T21:41:22.677Z,4.38
2022-10-02T21:44:03.400Z,5.50
2022-10-02T21:47:09.638Z,5.90
2022-10-02T21:49:49.721Z,5.00
2022-10-02T21:52:43.047Z,4.07
2022-10-02T21:55:32.733Z,5.68
2022-10-02T21:58:48.526Z,4.47
2022-10-02T22:02:07.753Z,4.55
2022-10-02T22:05:01.694Z,4.28
2022-10-02T22:07:37.902Z,3.22
2022-10-02T22:10:17.879Z,3.35
2022-10-02T22:13:23.453Z,2.90
2022-10-02T22:16:11.597Z,2.80
2022-10-02T22:19:20.013Z,2.67
2022-10-02T22:22:00.111Z,2.75
2022-10-02T22:24:47.254Z,3.67
2022-10-02T22:27:33.490Z,2.80
2022-10-02T22:30:02.862Z,3.28
2022-10-02T22:33:04.123Z,3.08
2022-10-02T22:35:44.865Z,4.50
2022-10-02T22:38:54.491Z,3.60
2022-10-02T22:41:34.239Z,2.70
2022-10-02T22:44:18.158Z,3.00
2022-10-02T22:46:57.792Z,3.10
2022-10-02T22:49:39.472Z,3.30
2022-10-02T22:52:20.901Z,3.10
2022-10-02T22:55:03.581Z,3.90
2022-10-02T22:58:34.330Z,2.65
2022-10-02T23:01:21.391Z,3.17
2022-10-02T23:03:57.099Z,2.35
2022-10-02T23:06:36.636Z,2.47
2022-10-02T23:09:28.001Z,2.80
2022-10-02T23:12:28.358Z,2.78
2022-10-02T23:15:30.236Z,2.45
2022-10-02T23:18:43.396Z,2.83
2022-10-02T23:21:28.720Z,2.47
2022-10-02T23:24:02.885Z,2.72
2022-10-02T23:27:10.815Z,2.20
2022-10-02T23:29:41.953Z,2.63
2022-10-02T23:32:24.667Z,2.55
2022-10-02T23:35:15.267Z,2.72
2022-10-02T23:37:52.091Z,3.00
2022-10-02T23:40:48.142Z,2.30
2022-10-02T23:43:30.144Z,2.92
2022-10-02T23:46:10.969Z,2.75
2022-10-02T23:48:39.720Z,2.50
2022-10-02T23:51:32.807Z,2.40
2022-10-02T23:54:33.473Z,2.13
2022-10-02T23:57:39.562Z,2.47
